Time;durP1;ratioP1;P1;durP2;ratioP2;P2;SDS_P1;SDS_P2;PMS_P1;PMS_P2;Temp;Humidity;BMP_temperature;BMP_pressure;BME280_temperature;BME280_humidity;BME280_pressure;Samples;Min_cycle;Max_cycle;Signal;HPM_P1;HPM_P2
2022/05/29 00:01:08;;;;;;;8.97;1.50;;;;;;;9.15;83.36;100812.19;6054473;28;20033;-66
2022/05/29 00:04:03;;;;;;;5.82;1.65;;;;;;;9.14;83.53;100810.50;6061849;28;20434;-66
2022/05/29 00:06:59;;;;;;;6.60;1.80;;;;;;;9.07;83.10;100796.16;6049808;28;20042;-66
2022/05/29 00:09:54;;;;;;;4.70;1.40;;;;;;;9.04;83.19;100793.78;6049444;28;20587;-66
2022/05/29 00:12:49;;;;;;;7.68;1.70;;;;;;;9.07;83.35;100790.88;6049679;28;20034;-66
2022/05/29 00:15:45;;;;;;;6.17;1.83;;;;;;;9.00;84.17;100797.63;6050595;28;20037;-66
2022/05/29 00:18:41;;;;;;;4.87;1.57;;;;;;;8.94;85.18;100788.44;6049331;28;20393;-67
2022/05/29 00:21:37;;;;;;;7.32;1.67;;;;;;;8.94;84.90;100787.63;6049791;28;20034;-67
2022/05/29 00:24:33;;;;;;;6.67;1.57;;;;;;;8.94;84.72;100790.25;6048632;28;20412;-67
2022/05/29 00:27:28;;;;;;;4.72;1.60;;;;;;;9.00;84.85;100789.72;6052296;28;20053;-67
2022/05/29 00:30:23;;;;;;;3.30;1.37;;;;;;;8.99;84.46;100780.13;6048538;28;20042;-67
2022/05/29 00:33:18;;;;;;;7.20;1.70;;;;;;;8.96;83.88;100781.22;6062570;28;20650;-67
2022/05/29 00:36:15;;;;;;;6.00;1.77;;;;;;;9.03;84.34;100784.16;6050434;28;20034;-67
2022/05/29 00:39:13;;;;;;;5.78;1.55;;;;;;;8.93;84.19;100785.94;6049689;28;20034;-66
2022/05/29 00:42:12;;;;;;;10.80;2.08;;;;;;;8.94;84.47;100769.91;6060715;28;20030;-66
2022/05/29 00:45:17;;;;;;;5.35;1.52;;;;;;;9.02;83.64;100777.22;6047735;28;20045;-66
2022/05/29 00:48:16;;;;;;;5.65;1.52;;;;;;;9.04;83.48;100764.69;6054104;28;20034;-66
2022/05/29 00:51:11;;;;;;;4.72;1.83;;;;;;;9.05;84.24;100761.03;6051638;28;20029;-67
2022/05/29 00:54:07;;;;;;;4.00;1.98;;;;;;;9.05;84.23;100763.69;6069414;28;20032;-67
2022/05/29 00:57:03;;;;;;;8.57;1.90;;;;;;;8.97;84.41;100752.94;6059824;28;20045;-67
2022/05/29 01:00:02;;;;;;;7.70;1.88;;;;;;;8.96;84.80;100760.06;6059558;28;20026;-67
2022/05/29 01:03:00;;;;;;;3.47;1.30;;;;;;;8.99;84.24;100749.19;6054575;28;20026;-66
2022/05/29 01:05:55;;;;;;;6.40;1.83;;;;;;;9.02;84.70;100752.56;6053867;28;20034;-66
2022/05/29 01:08:50;;;;;;;6.70;1.70;;;;;;;8.96;85.01;100743.34;6056848;28;20033;-67
2022/05/29 01:11:55;;;;;;;6.57;1.80;;;;;;;9.04;84.54;100751.44;6053292;28;20029;-66
2022/05/29 01:15:01;;;;;;;7.20;1.80;;;;;;;8.99;84.89;100745.72;6052375;28;20037;-66
2022/05/29 01:18:08;;;;;;;5.20;1.98;;;;;;;9.01;84.74;100750.88;6052235;28;20448;-65
2022/05/29 01:21:48;;;;;;;8.07;2.10;;;;;;;9.08;85.07;100749.38;6051923;28;20038;-66
2022/05/29 01:25:07;;;;;;;4.47;1.55;;;;;;;9.06;85.14;100744.22;6050369;28;20041;-66
2022/05/29 01:28:24;;;;;;;6.18;1.70;;;;;;;9.14;85.16;100746.16;6069196;28;20084;-67
2022/05/29 01:31:38;;;;;;;7.38;1.52;;;;;;;9.07;85.23;100740.59;6053531;28;20073;-66
2022/05/29 01:34:40;;;;;;;4.93;1.67;;;;;;;9.09;85.00;100741.28;6052300;28;20076;-66
2022/05/29 01:37:43;;;;;;;5.32;1.45;;;;;;;9.13;84.96;100745.31;6053536;28;20041;-67
2022/05/29 01:40:49;;;;;;;11.02;1.88;;;;;;;9.13;85.15;100729.44;6067325;28;20112;-66
2022/05/29 01:43:52;;;;;;;6.13;2.20;;;;;;;9.04;84.90;100725.00;6051981;28;20065;-66
2022/05/29 01:46:52;;;;;;;4.68;1.92;;;;;;;8.98;85.36;100725.53;6052629;28;20034;-66
2022/05/29 01:49:49;;;;;;;;;;;;;;;8.94;85.95;100738.19;6051404;28;20056;-66
2022/05/29 01:52:53;;;;;;;5.30;1.60;;;;;;;8.93;86.11;100719.81;6054041;28;19925;-66
2022/05/29 01:55:51;;;;;;;4.03;1.73;;;;;;;8.93;86.03;100718.00;6052255;28;20500;-66
2022/05/29 01:58:52;;;;;;;6.35;2.30;;;;;;;8.95;86.02;100723.16;6052395;28;20100;-66
2022/05/29 02:01:52;;;;;;;7.05;1.70;;;;;;;8.91;86.28;100713.84;6059849;28;20416;-66
2022/05/29 02:04:50;;;;;;;6.80;1.70;;;;;;;8.90;86.69;100707.72;6049655;28;20057;-66
2022/05/29 02:07:48;;;;;;;9.07;2.35;;;;;;;8.81;86.96;100707.66;6051891;28;20049;-66
2022/05/29 02:10:51;;;;;;;9.00;2.17;;;;;;;8.84;87.30;100702.09;6050874;28;20395;-67
2022/05/29 02:14:06;;;;;;;8.85;1.83;;;;;;;8.80;87.21;100708.66;6056138;28;20064;-66
2022/05/29 02:17:14;;;;;;;12.23;2.35;;;;;;;8.87;86.60;100707.13;6053073;28;20042;-66
2022/05/29 02:20:14;;;;;;;8.50;2.25;;;;;;;8.86;86.97;100711.56;6051461;28;20080;-66
2022/05/29 02:23:20;;;;;;;6.35;2.10;;;;;;;8.81;87.29;100702.38;6091374;28;20125;-66
2022/05/29 02:26:20;;;;;;;4.30;1.98;;;;;;;8.82;87.35;100690.84;6051275;28;20078;-66
2022/05/29 02:29:16;;;;;;;6.28;2.20;;;;;;;8.85;87.28;100703.78;6050331;28;20072;-66
2022/05/29 02:32:17;;;;;;;8.75;2.20;;;;;;;8.84;87.15;100702.09;6051244;28;20477;-66
2022/05/29 02:35:50;;;;;;;7.07;2.42;;;;;;;8.87;87.42;100701.84;6051464;28;20445;-66
2022/05/29 02:39:07;;;;;;;9.40;2.17;;;;;;;8.79;87.18;100697.25;6042938;28;20058;-66
2022/05/29 02:42:20;;;;;;;10.13;2.17;;;;;;;8.73;87.40;100689.84;6055386;28;20037;-66
2022/05/29 02:45:32;;;;;;;6.88;2.80;;;;;;;8.75;87.37;100701.09;6060763;28;20041;-66
2022/05/29 02:48:39;;;;;;;4.03;2.00;;;;;;;8.67;87.24;100684.28;6065719;28;20030;-66
2022/05/29 02:51:49;;;;;;;5.05;1.77;;;;;;;8.77;87.27;100695.69;6083765;28;20029;-66
2022/05/29 02:54:44;;;;;;;6.45;2.20;;;;;;;8.77;87.14;100685.97;6052552;28;20481;-67
2022/05/29 02:57:40;;;;;;;5.93;1.80;;;;;;;8.74;86.74;100685.41;6051058;28;20045;-66
2022/05/29 03:00:53;;;;;;;7.18;1.70;;;;;;;8.73;87.14;100689.00;6061263;28;20067;-66
2022/05/29 03:03:56;;;;;;;9.40;2.20;;;;;;;8.75;86.85;100692.38;6052520;28;20481;-65
2022/05/29 03:06:51;;;;;;;5.35;1.90;;;;;;;8.72;87.36;100690.00;6067187;28;20065;-66
2022/05/29 03:10:07;;;;;;;7.15;1.80;;;;;;;8.76;87.79;100694.00;6054017;28;20038;-67
2022/05/29 03:13:03;;;;;;;10.07;2.05;;;;;;;8.77;88.08;100693.06;6051262;28;20038;-66
2022/05/29 03:16:09;;;;;;;5.40;2.22;;;;;;;8.74;87.53;100693.31;6051293;28;20410;-67
2022/05/29 03:19:25;;;;;;;7.85;2.28;;;;;;;8.73;88.04;100683.72;6051622;28;20030;-66
2022/05/29 03:22:35;;;;;;;6.28;2.33;;;;;;;8.81;87.95;100689.16;6053525;28;20503;-66
2022/05/29 03:25:41;;;;;;;8.13;2.58;;;;;;;8.83;88.03;100677.47;6065285;28;20030;-66
2022/05/29 03:28:46;;;;;;;11.95;2.53;;;;;;;8.72;87.95;100672.31;6052659;28;20044;-67
2022/05/29 03:31:42;;;;;;;8.27;2.30;;;;;;;8.78;88.34;100686.78;6049122;28;20435;-66
2022/05/29 03:34:37;;;;;;;11.13;2.37;;;;;;;8.76;88.43;100678.16;6049659;28;20079;-67
2022/05/29 03:37:32;;;;;;;8.10;2.00;;;;;;;8.82;88.19;100685.56;6051253;28;20281;-66
2022/05/29 03:40:29;;;;;;;8.20;2.50;;;;;;;8.81;88.45;100676.78;6052340;28;20038;-66
2022/05/29 03:43:24;;;;;;;9.52;2.50;;;;;;;8.87;88.08;100681.53;6058668;28;20033;-67
2022/05/29 03:46:20;;;;;;;5.97;2.17;;;;;;;8.82;88.18;100667.88;6057715;28;20107;-66
2022/05/29 03:49:17;;;;;;;5.90;1.83;;;;;;;8.99;87.94;100675.13;6050885;28;20490;-66
2022/05/29 03:52:12;;;;;;;9.57;2.13;;;;;;;8.89;87.56;100669.00;6052741;28;20482;-65
2022/05/29 03:55:08;;;;;;;5.47;2.30;;;;;;;8.96;87.80;100664.00;6043654;28;20048;-67
2022/05/29 03:58:04;;;;;;;7.57;1.98;;;;;;;9.03;88.04;100667.78;6055287;28;20040;-66
2022/05/29 04:00:59;;;;;;;7.25;3.38;;;;;;;8.97;88.02;100649.81;6053653;28;20034;-66
2022/05/29 04:03:55;;;;;;;8.83;2.03;;;;;;;8.83;88.17;100652.88;6054208;28;20026;-66
2022/05/29 04:06:50;;;;;;;8.25;2.10;;;;;;;8.91;88.52;100659.13;6050595;28;20030;-66
2022/05/29 04:12:59;;;;;;;;;;;;;;;9.01;87.88;100664.44;6055132;28;20030;-67
2022/05/29 04:15:54;;;;;;;6.17;2.53;;;;;;;9.00;87.84;100652.19;6058177;28;19925;-66
2022/05/29 04:18:50;;;;;;;8.07;2.20;;;;;;;9.00;88.11;100649.53;6049666;28;20126;-67
2022/05/29 04:21:46;;;;;;;5.90;2.30;;;;;;;9.11;87.42;100652.06;6049697;28;20308;-66
2022/05/29 04:24:41;;;;;;;6.07;2.55;;;;;;;9.19;87.36;100649.53;6049458;28;20104;-67
2022/05/29 04:27:36;;;;;;;7.50;2.60;;;;;;;9.17;87.01;100651.50;6052196;28;20038;-66
2022/05/29 04:30:32;;;;;;;6.23;2.03;;;;;;;9.13;87.23;100642.16;6055478;28;20034;-66
2022/05/29 04:33:27;;;;;;;9.73;2.60;;;;;;;9.22;87.32;100654.56;6054931;28;20026;-66
2022/05/29 04:36:24;;;;;;;6.23;2.30;;;;;;;9.23;86.89;100650.13;6063132;28;20523;-66
2022/05/29 04:39:19;;;;;;;8.98;2.50;;;;;;;9.25;87.08;100654.28;6066260;28;20065;-66
2022/05/29 04:42:14;;;;;;;7.53;2.10;;;;;;;9.25;87.04;100648.16;6054439;28;20055;-66
2022/05/29 04:45:10;;;;;;;8.07;2.07;;;;;;;9.44;86.50;100654.28;6053608;28;20389;-66
2022/05/29 04:48:05;;;;;;;8.52;2.55;;;;;;;9.40;86.58;100650.22;6055790;28;20038;-66
2022/05/29 04:51:03;;;;;;;10.55;2.83;;;;;;;9.44;86.38;100638.41;6052863;28;20068;-66
2022/05/29 04:53:58;;;;;;;8.55;1.83;;;;;;;9.53;85.98;100640.22;6053806;28;20034;-66
2022/05/29 04:56:53;;;;;;;8.97;2.23;;;;;;;9.45;85.98;100641.91;6053636;28;20140;-66
2022/05/29 04:59:48;;;;;;;12.60;2.37;;;;;;;9.50;86.02;100643.16;6053266;28;20038;-67
2022/05/29 05:02:44;;;;;;;7.70;2.00;;;;;;;9.53;86.35;100636.72;6053158;28;20030;-66
2022/05/29 05:05:39;;;;;;;7.80;2.10;;;;;;;9.67;86.23;100651.34;6054625;28;20117;-66
2022/05/29 05:08:34;;;;;;;17.00;2.63;;;;;;;9.49;85.45;100636.16;6053066;28;20304;-66
2022/05/29 05:11:31;;;;;;;7.30;2.00;;;;;;;9.48;85.81;100645.06;6052451;28;20033;-67
2022/05/29 05:14:27;;;;;;;8.88;2.50;;;;;;;9.44;85.85;100638.41;6053163;28;20303;-66
2022/05/29 05:17:22;;;;;;;10.70;1.88;;;;;;;9.46;85.45;100647.03;6053436;28;20030;-65
2022/05/29 05:20:18;;;;;;;6.67;2.10;;;;;;;9.38;85.43;100643.41;6053463;28;20048;-66
2022/05/29 05:23:13;;;;;;;12.88;2.25;;;;;;;9.46;84.99;100641.75;6053232;28;20034;-67
2022/05/29 05:26:11;;;;;;;10.13;2.10;;;;;;;9.46;85.37;100648.84;6052972;28;20040;-66
2022/05/29 05:29:06;;;;;;;9.55;2.25;;;;;;;9.54;84.48;100643.69;6053095;28;20493;-66
2022/05/29 05:32:02;;;;;;;4.88;1.70;;;;;;;9.57;84.52;100638.09;6052221;28;20033;-65
2022/05/29 05:35:02;;;;;;;10.85;2.13;;;;;;;9.62;84.55;100650.94;6052735;28;20049;-66
2022/05/29 05:37:58;;;;;;;12.10;2.30;;;;;;;9.61;84.06;100639.50;6058179;28;20065;-66
2022/05/29 05:40:53;;;;;;;7.17;1.73;;;;;;;9.65;83.46;100634.78;6051734;28;20038;-66
2022/05/29 05:43:48;;;;;;;8.17;2.67;;;;;;;9.66;83.76;100637.25;6051431;28;20425;-67
2022/05/29 05:46:50;;;;;;;5.40;2.07;;;;;;;9.70;83.24;100643.13;6051825;28;20367;-67
2022/05/29 05:49:45;;;;;;;9.05;1.80;;;;;;;9.92;82.51;100646.25;6052063;28;20259;-66
2022/05/29 05:52:40;;;;;;;8.70;1.83;;;;;;;9.93;81.81;100639.16;6052999;28;20033;-66
2022/05/29 05:55:36;;;;;;;9.80;1.75;;;;;;;10.10;81.67;100635.75;6054731;28;20040;-66
2022/05/29 05:58:31;;;;;;;6.65;1.95;;;;;;;10.26;81.55;100632.50;6054216;28;20034;-66
2022/05/29 06:01:27;;;;;;;12.47;2.50;;;;;;;10.36;80.90;100634.13;6052221;28;20395;-66
2022/05/29 06:04:22;;;;;;;4.70;1.60;;;;;;;10.50;80.13;100641.63;6052019;28;20103;-66
2022/05/29 06:07:18;;;;;;;9.57;2.10;;;;;;;10.41;80.45;100633.72;6052998;28;20452;-66
2022/05/29 06:10:13;;;;;;;5.87;1.97;;;;;;;10.52;80.33;100634.34;6055661;28;20387;-66
2022/05/29 06:13:08;;;;;;;6.93;2.20;;;;;;;10.40;79.90;100640.84;6054716;28;20080;-66
2022/05/29 06:16:04;;;;;;;8.05;2.42;;;;;;;10.44;79.70;100642.19;6053049;28;20022;-66
2022/05/29 06:18:59;;;;;;;9.20;2.00;;;;;;;10.47;80.04;100641.91;6051701;28;20030;-66
2022/05/29 06:21:55;;;;;;;10.03;2.40;;;;;;;10.74;78.96;100652.50;6055350;28;20048;-66
2022/05/29 06:24:50;;;;;;;8.33;2.43;;;;;;;10.68;79.42;100646.97;6053483;28;20469;-66
2022/05/29 06:27:45;;;;;;;7.97;1.93;;;;;;;10.52;79.71;100647.59;6053525;28;20041;-66
2022/05/29 06:30:41;;;;;;;5.83;1.80;;;;;;;10.56;79.46;100635.72;6051886;28;20284;-66
2022/05/29 06:33:37;;;;;;;10.17;3.17;;;;;;;10.51;79.80;100639.81;6051338;28;20129;-66
2022/05/29 06:36:32;;;;;;;10.95;2.72;;;;;;;10.51;80.05;100634.50;6051493;28;20117;-66
2022/05/29 06:39:27;;;;;;;7.93;2.17;;;;;;;10.73;79.82;100640.22;6051142;28;20030;-67
2022/05/29 06:42:22;;;;;;;8.57;2.63;;;;;;;10.66;79.20;100628.53;6059229;28;20385;-66
2022/05/29 06:45:18;;;;;;;8.43;2.50;;;;;;;10.62;79.08;100642.25;6057130;28;20042;-65
2022/05/29 06:48:14;;;;;;;8.93;2.90;;;;;;;10.58;79.00;100644.34;6061262;28;20030;-65
2022/05/29 06:51:22;;;;;;;10.90;2.60;;;;;;;10.51;79.67;100643.28;6050855;28;20425;-65
2022/05/29 06:54:17;;;;;;;10.35;2.88;;;;;;;10.69;79.92;100649.47;6050671;28;20037;-66
2022/05/29 06:57:13;;;;;;;8.00;2.80;;;;;;;10.90;78.67;100624.50;6050409;28;20034;-66
2022/05/29 07:09:54;;;;;;;13.43;2.63;;;;;;;10.67;78.37;100635.53;6050264;28;20034;-66
2022/05/29 07:12:49;;;;;;;9.13;2.53;;;;;;;10.79;78.41;100637.97;6051000;28;20061;-66
2022/05/29 07:15:44;;;;;;;8.93;2.53;;;;;;;10.86;77.85;100625.78;6050910;28;20088;-65
2022/05/29 07:18:39;;;;;;;12.57;2.70;;;;;;;10.93;77.71;100629.47;6051398;28;20370;-66
2022/05/29 07:21:39;;;;;;;13.80;2.90;;;;;;;11.14;77.42;100632.69;6055515;28;20523;-66
2022/05/29 07:24:36;;;;;;;11.40;3.13;;;;;;;11.31;76.47;100629.19;6054031;28;20022;-66
2022/05/29 07:27:31;;;;;;;10.23;3.03;;;;;;;11.48;75.45;100636.31;6060394;28;20037;-65
2022/05/29 07:30:27;;;;;;;14.80;3.07;;;;;;;11.43;76.00;100632.44;6049472;28;20567;-65
2022/05/29 07:33:23;;;;;;;10.35;2.83;;;;;;;11.61;75.14;100628.78;6052014;28;20026;-66
2022/05/29 07:36:18;;;;;;;8.43;2.65;;;;;;;11.58;74.76;100613.16;6050986;28;20037;-66
2022/05/29 07:39:14;;;;;;;8.68;2.42;;;;;;;11.93;74.99;100629.03;6057189;28;20357;-66
2022/05/29 07:45:23;;;;;;;11.05;3.20;;;;;;;12.06;72.83;100631.28;6049959;28;20269;-66
2022/05/29 07:48:20;;;;;;;8.23;2.90;;;;;;;12.31;73.46;100619.75;6049966;28;20042;-66
2022/05/29 07:51:15;;;;;;;10.80;3.45;;;;;;;12.30;72.40;100617.28;6048297;28;20076;-66
2022/05/29 07:54:10;;;;;;;13.20;2.70;;;;;;;12.07;72.29;100622.28;6049261;28;20030;-66
2022/05/29 07:57:06;;;;;;;11.13;2.40;;;;;;;12.16;72.40;100625.84;6050373;28;20108;-65
2022/05/29 08:00:03;;;;;;;9.00;2.53;;;;;;;12.35;72.87;100623.78;6054496;28;20303;-66
2022/05/29 08:02:59;;;;;;;12.05;2.38;;;;;;;12.23;72.13;100626.88;6049673;28;20042;-66
2022/05/29 08:05:56;;;;;;;6.13;2.20;;;;;;;11.80;74.17;100619.81;6050559;28;20068;-65
2022/05/29 08:08:51;;;;;;;8.73;2.67;;;;;;;11.83;74.14;100619.50;6047902;28;20026;-65
2022/05/29 08:11:47;;;;;;;7.63;2.27;;;;;;;11.70;76.50;100621.72;6048383;28;20471;-67
2022/05/29 08:14:42;;;;;;;5.70;2.50;;;;;;;11.63;78.31;100633.94;6048958;28;20261;-66
2022/05/29 08:17:38;;;;;;;8.47;2.73;;;;;;;11.75;78.68;100625.59;6053221;28;20511;-67
2022/05/29 08:20:36;;;;;;;12.30;2.80;;;;;;;11.77;77.65;100626.25;6055394;28;20343;-66
2022/05/29 08:23:32;;;;;;;5.80;2.35;;;;;;;12.13;75.76;100626.16;6052942;28;20034;-66
2022/05/29 08:32:55;;;;;;;8.95;2.10;;;;;;;13.13;70.40;100621.69;6059756;28;20034;-67
2022/05/29 08:36:09;;;;;;;9.33;2.23;;;;;;;13.24;68.73;100628.50;6050052;28;20038;-66
2022/05/29 08:39:04;;;;;;;10.20;2.13;;;;;;;13.69;67.49;100629.72;6051679;28;20032;-67
2022/05/29 08:41:59;;;;;;;8.03;2.17;;;;;;;13.68;67.08;100629.84;6059992;28;20030;-67
2022/05/29 08:44:55;;;;;;;6.53;1.67;;;;;;;13.29;67.27;100623.56;6055744;28;20164;-67
2022/05/29 08:47:51;;;;;;;9.73;2.20;;;;;;;13.27;68.28;100621.03;6055011;28;20497;-67
2022/05/29 08:50:56;;;;;;;6.13;1.98;;;;;;;13.26;68.09;100624.72;6054068;28;20029;-67
2022/05/29 08:54:01;;;;;;;9.07;2.13;;;;;;;13.10;67.64;100611.34;6059991;28;20030;-66
2022/05/29 08:56:59;;;;;;;5.85;1.77;;;;;;;13.37;67.09;100613.72;6070511;28;20041;-66
2022/05/29 09:00:03;;;;;;;3.60;1.73;;;;;;;13.59;67.26;100609.53;6049105;28;20034;-66
2022/05/29 09:03:20;;;;;;;6.57;1.90;;;;;;;13.82;66.16;100613.19;6047425;28;20507;-67
2022/05/29 09:06:41;;;;;;;7.07;1.90;;;;;;;14.15;64.25;100616.63;6048759;28;20147;-67
2022/05/29 09:09:53;;;;;;;4.35;1.50;;;;;;;14.33;63.18;100603.91;6047583;28;20045;-66
2022/05/29 09:12:53;;;;;;;6.78;1.83;;;;;;;14.15;63.74;100598.78;6071058;28;20053;-67
2022/05/29 09:15:51;;;;;;;10.32;2.00;;;;;;;13.74;66.46;100618.53;6051559;28;20034;-67
2022/05/29 09:19:00;;;;;;;6.30;1.58;;;;;;;13.94;66.34;100617.16;6052554;28;20087;-66
2022/05/29 09:22:03;;;;;;;5.38;1.33;;;;;;;14.25;66.97;100611.91;6083385;28;20551;-67
2022/05/29 09:25:08;;;;;;;3.30;1.58;;;;;;;14.25;66.31;100615.41;6052769;28;20512;-67
2022/05/29 09:28:06;;;;;;;7.13;1.60;;;;;;;14.07;66.90;100604.13;6056897;28;20030;-66
2022/05/29 09:31:19;;;;;;;5.78;1.23;;;;;;;13.69;64.90;100623.53;6050852;28;20092;-66
2022/05/29 09:34:14;;;;;;;3.95;0.90;;;;;;;13.89;64.50;100611.50;6048327;28;20084;-66
2022/05/29 09:37:47;;;;;;;7.45;1.33;;;;;;;14.38;65.20;100608.75;6050472;28;20691;-66
2022/05/29 09:40:58;;;;;;;4.93;1.27;;;;;;;14.53;63.66;100598.97;6047848;28;20042;-66
2022/05/29 09:44:10;;;;;;;3.53;1.20;;;;;;;15.09;63.91;100601.31;6053452;28;20045;-67
2022/05/29 09:50:22;;;;;;;3.35;1.20;;;;;;;15.53;59.72;100595.31;6051232;28;20038;-66
2022/05/29 09:53:26;;;;;;;6.68;1.13;;;;;;;15.10;59.32;100602.97;6052099;28;20038;-66
2022/05/29 09:56:29;;;;;;;3.17;1.20;;;;;;;15.21;61.26;100599.91;6052718;28;20034;-67
2022/05/29 09:59:26;;;;;;;2.30;1.20;;;;;;;14.88;62.56;100601.97;6048631;28;20528;-66
2022/05/29 10:02:31;;;;;;;3.40;1.60;;;;;;;13.54;68.61;100609.22;6084179;28;20030;-66
2022/05/29 10:05:29;;;;;;;6.72;1.77;;;;;;;12.72;72.61;100606.63;6050794;28;20173;-67
2022/05/29 10:08:28;;;;;;;8.80;2.10;;;;;;;12.38;77.17;100617.31;6052989;28;20041;-66
2022/05/29 10:11:31;;;;;;;4.97;2.00;;;;;;;11.93;78.19;100610.41;6053794;28;20440;-66
2022/05/29 10:14:44;;;;;;;5.07;1.38;;;;;;;12.43;79.94;100605.19;6051608;28;20065;-67
2022/05/29 10:17:40;;;;;;;6.18;1.52;;;;;;;12.65;78.60;100595.78;6057897;28;20033;-66
2022/05/29 10:20:38;;;;;;;6.75;1.85;;;;;;;13.39;76.66;100594.91;6050989;28;20041;-67
2022/05/29 10:23:36;;;;;;;5.75;2.10;;;;;;;14.05;74.80;100589.31;6052572;28;20488;-67
2022/05/29 10:26:33;;;;;;;4.90;1.70;;;;;;;15.21;69.20;100583.03;6049519;28;20032;-67
2022/05/29 10:29:32;;;;;;;3.40;1.48;;;;;;;16.15;62.11;100587.81;6066501;28;20059;-67
2022/05/29 10:32:29;;;;;;;4.20;1.67;;;;;;;16.50;58.76;100584.34;6061077;28;20469;-66
2022/05/29 10:35:31;;;;;;;5.13;1.45;;;;;;;16.35;60.22;100587.06;6049385;28;20041;-67
2022/05/29 10:38:28;;;;;;;3.90;1.50;;;;;;;16.09;58.99;100582.19;6050398;28;20521;-66
2022/05/29 10:41:32;;;;;;;4.43;1.50;;;;;;;14.88;62.53;100585.09;6051383;28;20109;-66
2022/05/29 10:44:41;;;;;;;6.35;1.60;;;;;;;14.24;65.82;100595.06;6050235;28;20049;-67
2022/05/29 10:47:49;;;;;;;4.43;1.10;;;;;;;14.18;66.09;100592.28;6051153;28;20061;-66
2022/05/29 10:50:59;;;;;;;3.88;1.20;;;;;;;14.17;64.99;100594.09;6050625;28;20026;-67
2022/05/29 10:54:09;;;;;;;5.63;1.40;;;;;;;14.57;64.43;100587.78;6047845;28;20044;-66
2022/05/29 10:57:39;;;;;;;2.95;1.25;;;;;;;14.94;64.37;100588.91;6085520;28;20030;-67
2022/05/29 11:00:53;;;;;;;2.30;0.90;;;;;;;14.72;65.62;100593.22;6050455;28;20494;-66
2022/05/29 11:03:58;;;;;;;1.05;0.40;;;;;;;13.69;67.11;100605.72;6082432;28;20067;-66
2022/05/29 11:07:06;;;;;;;1.08;0.43;;;;;;;13.21;70.17;100602.25;6050964;28;20493;-66
2022/05/29 11:10:38;;;;;;;1.13;0.50;;;;;;;12.65;73.68;100606.44;6082755;28;20037;-66
2022/05/29 11:13:49;;;;;;;0.88;0.50;;;;;;;12.51;76.33;100599.91;6055097;28;20464;-66
2022/05/29 11:17:02;;;;;;;1.85;1.00;;;;;;;12.21;78.79;100594.28;6050245;28;20038;-66
2022/05/29 11:20:19;;;;;;;2.65;0.93;;;;;;;12.32;78.61;100589.53;6064113;28;20034;-67
2022/05/29 11:23:32;;;;;;;3.45;1.00;;;;;;;12.42;81.16;100589.38;6053781;28;20466;-66
2022/05/29 11:26:42;;;;;;;2.95;1.20;;;;;;;12.36;79.73;100574.94;6094143;28;20148;-66
2022/05/29 11:29:54;;;;;;;1.38;0.70;;;;;;;12.68;81.20;100579.50;6081353;28;20030;-66
2022/05/29 11:33:12;;;;;;;3.85;1.20;;;;;;;13.21;80.33;100570.28;6049220;28;20030;-67
2022/05/29 11:36:29;;;;;;;4.70;1.02;;;;;;;13.60;75.87;100571.25;6050167;28;20026;-66
2022/05/29 11:39:31;;;;;;;4.07;1.08;;;;;;;13.97;76.22;100570.69;6051152;28;20061;-66
2022/05/29 11:42:34;;;;;;;1.55;1.10;;;;;;;14.13;72.63;100562.63;6065933;28;20072;-67
2022/05/29 11:52:45;;;;;;;1.38;0.90;;;;;;;14.80;70.84;100543.28;6049413;28;20034;-67
2022/05/29 11:55:42;;;;;;;4.05;1.10;;;;;;;15.05;67.88;100538.59;6048703;28;20033;-67
2022/05/29 11:58:55;;;;;;;2.90;0.90;;;;;;;14.82;66.75;100543.09;6066078;28;20034;-67
2022/05/29 12:02:06;;;;;;;3.60;1.30;;;;;;;14.54;66.98;100532.09;6046985;28;20041;-67
2022/05/29 12:05:13;;;;;;;2.92;1.00;;;;;;;14.51;67.54;100544.97;6061022;28;20056;-67
2022/05/29 12:08:18;;;;;;;1.88;1.13;;;;;;;14.61;67.50;100534.88;6050354;28;20692;-66
2022/05/29 12:11:41;;;;;;;2.80;1.15;;;;;;;15.07;65.73;100528.53;6049039;28;20477;-67
2022/05/29 12:14:45;;;;;;;2.80;1.00;;;;;;;15.59;62.04;100525.94;6050997;28;20041;-66
2022/05/29 12:17:45;;;;;;;1.95;0.93;;;;;;;15.39;63.43;100519.41;6057657;28;20117;-67
2022/05/29 12:20:45;;;;;;;3.75;1.27;;;;;;;16.30;62.93;100525.25;6046946;28;20030;-67
2022/05/29 12:23:43;;;;;;;2.72;0.90;;;;;;;15.72;59.81;100511.91;6049037;28;20034;-67
2022/05/29 12:26:43;;;;;;;2.08;0.98;;;;;;;14.84;63.16;100525.03;6049507;28;20030;-67
2022/05/29 12:29:44;;;;;;;5.30;1.40;;;;;;;14.19;67.49;100525.41;6048662;28;20034;-67
2022/05/29 12:32:39;;;;;;;5.10;1.40;;;;;;;13.18;70.10;100530.69;6077205;28;20030;-66
2022/05/29 12:35:49;;;;;;;5.73;1.67;;;;;;;12.95;72.42;100527.81;6048885;28;20084;-66
2022/05/29 12:39:05;;;;;;;3.17;1.25;;;;;;;12.69;74.84;100548.41;6048326;28;20675;-66
2022/05/29 12:42:20;;;;;;;3.08;1.17;;;;;;;12.41;75.00;100537.19;6049168;28;20543;-66
2022/05/29 12:45:34;;;;;;;2.08;1.33;;;;;;;12.17;72.88;100551.25;6080925;28;20073;-66
2022/05/29 12:48:57;;;;;;;1.27;1.13;;;;;;;12.03;73.59;100545.69;6050125;28;20470;-67
2022/05/29 12:52:10;;;;;;;1.42;0.88;;;;;;;12.06;74.77;100550.69;6050867;28;20436;-66
2022/05/29 12:55:24;;;;;;;1.98;0.88;;;;;;;12.17;75.73;100553.06;6051086;28;20064;-67
2022/05/29 12:58:37;;;;;;;1.80;0.75;;;;;;;12.32;75.50;100540.81;6067498;28;20029;-67
2022/05/29 13:02:03;;;;;;;1.65;0.70;;;;;;;12.15;73.68;100549.75;6051455;28;20052;-67
2022/05/29 13:05:19;;;;;;;1.27;0.70;;;;;;;12.26;75.62;100544.97;6053101;28;20087;-67
2022/05/29 13:08:54;;;;;;;5.22;0.80;;;;;;;12.44;77.74;100540.38;6052766;28;20248;-67
2022/05/29 13:11:57;;;;;;;2.20;0.98;;;;;;;12.28;79.10;100539.50;6051952;28;20465;-67
2022/05/29 13:14:57;;;;;;;4.18;1.05;;;;;;;12.38;78.91;100540.19;6049207;28;20026;-67
2022/05/29 13:17:59;;;;;;;2.17;1.30;;;;;;;12.30;80.72;100533.03;6053171;28;20034;-67
2022/05/29 13:21:15;;;;;;;4.07;1.20;;;;;;;12.43;78.44;100538.69;6050939;28;20037;-67
2022/05/29 13:24:15;;;;;;;4.60;1.30;;;;;;;12.58;78.87;100536.25;6054910;28;20038;-67
2022/05/29 13:27:17;;;;;;;3.05;1.63;;;;;;;12.68;77.55;100525.44;6052538;28;20042;-66
2022/05/29 13:30:34;;;;;;;4.85;1.70;;;;;;;12.72;77.74;100532.13;6051283;28;20107;-66
2022/05/29 13:33:29;;;;;;;5.85;2.20;;;;;;;13.08;77.70;100526.34;6051421;28;20022;-67
2022/05/29 13:36:41;;;;;;;2.35;1.33;;;;;;;13.54;75.38;100529.28;6052422;28;20488;-67
2022/05/29 13:39:52;;;;;;;3.58;1.30;;;;;;;14.01;73.03;100526.66;6055511;28;20092;-67
2022/05/29 13:42:49;;;;;;;3.08;1.33;;;;;;;14.36;70.89;100520.84;6051315;28;20120;-67
2022/05/29 13:45:45;;;;;;;4.13;1.13;;;;;;;14.69;68.53;100522.31;6058901;28;20456;-68
2022/05/29 13:49:04;;;;;;;3.13;1.20;;;;;;;15.01;67.41;100523.09;6051819;28;20030;-68
2022/05/29 13:52:06;;;;;;;2.92;1.20;;;;;;;15.32;64.28;100519.31;6083042;28;20034;-67
2022/05/29 13:55:17;;;;;;;1.75;1.05;;;;;;;15.47;65.66;100517.53;6050799;28;20029;-67
2022/05/29 14:04:55;;;;;;;3.35;1.60;;;;;;;15.12;65.56;100517.31;6068588;28;20034;-67
2022/05/29 14:08:19;;;;;;;2.70;1.40;;;;;;;14.96;67.10;100518.28;6062728;28;21315;-67
2022/05/29 14:11:15;;;;;;;2.50;1.00;;;;;;;14.67;68.08;100512.84;6051628;28;20032;-67
2022/05/29 14:14:29;;;;;;;2.47;0.93;;;;;;;14.63;67.11;100520.34;6054330;28;20401;-67
2022/05/29 14:17:28;;;;;;;5.60;1.15;;;;;;;14.36;68.56;100515.53;6051844;28;20141;-68
2022/05/29 14:20:47;;;;;;;2.45;0.88;;;;;;;14.02;69.20;100515.00;6052843;28;20033;-67
2022/05/29 14:23:46;;;;;;;;;;;;;;;13.96;70.41;100508.53;6053408;28;20547;-67
2022/05/29 14:26:57;;;;;;;2.10;0.98;;;;;;;13.82;71.78;100505.72;6051783;28;19917;-68
2022/05/29 14:29:55;;;;;;;3.78;1.20;;;;;;;13.54;73.59;100518.63;6057678;28;20408;-67
2022/05/29 14:33:17;;;;;;;3.88;1.33;;;;;;;12.73;77.42;100523.97;6053438;28;20380;-66
2022/05/29 14:36:31;;;;;;;4.97;1.48;;;;;;;12.14;80.79;100522.34;6050981;28;20049;-66
2022/05/29 14:40:14;;;;;;;5.55;1.88;;;;;;;11.94;82.59;100524.41;6051616;28;20033;-67
2022/05/29 14:43:13;;;;;;;3.40;1.33;;;;;;;11.83;83.21;100518.53;6064254;28;20056;-67
2022/05/29 14:46:37;;;;;;;2.60;0.90;;;;;;;11.81;80.12;100515.22;6058850;28;20045;-67
2022/05/29 14:49:54;;;;;;;2.75;1.30;;;;;;;11.80;81.18;100513.53;6085950;28;20041;-66
2022/05/29 14:53:12;;;;;;;1.60;0.93;;;;;;;11.75;82.22;100519.31;6051513;28;20037;-66